Time;durP1;ratioP1;P1;durP2;ratioP2;P2;SDS_P1;SDS_P2;PMS_P1;PMS_P2;Temp;Humidity;BMP_temperature;BMP_pressure;BME280_temperature;BME280_humidity;BME280_pressure;Samples;Min_cycle;Max_cycle;Signal;HPM_P1;HPM_P2
2023/08/08 00:01:16;;;;;;;4.38;3.17;;;;;;;12.79;95.29;101380.56;5007957;28;20030;-69
2023/08/08 00:03:42;;;;;;;8.52;3.05;;;;;;;12.79;94.49;101386.03;5011433;28;20072;-68
2023/08/08 00:06:07;;;;;;;5.78;3.35;;;;;;;12.76;95.17;101384.38;5027779;28;20033;-68
2023/08/08 00:08:32;;;;;;;8.57;3.38;;;;;;;12.76;94.86;101378.91;5024346;28;20603;-68
2023/08/08 00:10:58;;;;;;;6.55;3.13;;;;;;;12.76;95.44;101377.06;5007279;28;20050;-68
2023/08/08 00:13:23;;;;;;;6.50;3.25;;;;;;;12.78;95.03;101376.97;5007896;28;20037;-69
2023/08/08 00:15:48;;;;;;;7.18;3.20;;;;;;;12.80;95.56;101374.13;5010488;28;20044;-68
2023/08/08 00:18:14;;;;;;;4.95;3.45;;;;;;;12.80;95.92;101385.91;5027221;28;20208;-68
2023/08/08 00:20:39;;;;;;;6.38;2.90;;;;;;;12.83;95.67;101385.69;5025550;28;20055;-68
2023/08/08 00:23:05;;;;;;;4.75;3.00;;;;;;;12.84;95.79;101381.97;5026702;28;20115;-68
2023/08/08 00:25:30;;;;;;;7.80;3.55;;;;;;;12.89;95.69;101379.78;5027294;28;20041;-68
2023/08/08 00:27:55;;;;;;;5.10;3.20;;;;;;;12.91;95.65;101380.50;5015829;28;20545;-68
2023/08/08 00:30:21;;;;;;;6.50;3.35;;;;;;;12.93;95.59;101380.44;5038375;28;20371;-68
2023/08/08 00:32:46;;;;;;;5.22;3.10;;;;;;;12.95;94.92;101381.16;5018573;28;20025;-69
2023/08/08 00:35:12;;;;;;;8.35;3.33;;;;;;;12.96;95.79;101366.53;5026066;28;20042;-69
2023/08/08 00:37:37;;;;;;;6.70;2.78;;;;;;;12.94;95.76;101360.31;5024505;28;20046;-68
2023/08/08 00:40:03;;;;;;;8.02;3.47;;;;;;;12.94;96.09;101361.19;5026054;28;20060;-69
2023/08/08 00:42:28;;;;;;;5.95;2.80;;;;;;;12.96;95.70;101363.78;5018995;28;20075;-68
2023/08/08 00:44:53;;;;;;;7.35;3.53;;;;;;;12.99;95.78;101366.31;5007218;28;20045;-68
2023/08/08 00:47:19;;;;;;;8.20;3.10;;;;;;;12.99;95.86;101371.78;5006915;28;20452;-69
2023/08/08 00:49:48;;;;;;;5.22;3.15;;;;;;;13.00;95.94;101366.19;5007039;28;20050;-68
2023/08/08 00:52:13;;;;;;;5.90;2.90;;;;;;;13.04;95.86;101366.84;5019284;28;20029;-69
2023/08/08 00:54:39;;;;;;;8.38;3.50;;;;;;;13.06;95.97;101359.41;5026481;28;20040;-69
2023/08/08 00:57:05;;;;;;;4.63;3.00;;;;;;;13.07;96.02;101369.34;5026393;28;20025;-69
2023/08/08 00:59:32;;;;;;;6.07;2.92;;;;;;;13.06;96.39;101373.06;5027545;28;20497;-68
2023/08/08 01:01:58;;;;;;;6.72;3.63;;;;;;;13.06;96.40;101370.34;5031190;28;20048;-68
2023/08/08 01:04:26;;;;;;;6.72;2.90;;;;;;;13.06;96.07;101370.34;5031220;28;20041;-69
2023/08/08 01:06:57;;;;;;;7.88;3.08;;;;;;;13.10;96.63;101368.22;5029249;28;20580;-69
2023/08/08 01:09:46;;;;;;;5.93;2.90;;;;;;;13.13;96.18;101373.47;5010342;28;20123;-68
2023/08/08 01:12:14;;;;;;;10.40;3.22;;;;;;;13.14;95.61;101372.47;5010523;28;20105;-69
2023/08/08 01:14:42;;;;;;;6.45;2.88;;;;;;;13.16;95.80;101367.78;5010397;28;20061;-69
2023/08/08 01:17:08;;;;;;;4.43;3.15;;;;;;;13.18;95.58;101363.06;4993124;28;20038;-69
2023/08/08 01:19:34;;;;;;;10.10;3.10;;;;;;;13.22;95.63;101362.75;5009176;28;20068;-68
2023/08/08 01:22:08;;;;;;;8.38;3.17;;;;;;;13.23;96.12;101356.28;5020865;28;20394;-68
2023/08/08 01:24:37;;;;;;;6.97;3.38;;;;;;;13.24;96.02;101346.25;5009903;28;20083;-68
2023/08/08 01:27:03;;;;;;;9.30;3.15;;;;;;;13.24;96.92;101360.81;5025780;28;20010;-68
2023/08/08 01:29:28;;;;;;;6.47;3.55;;;;;;;13.23;96.18;101361.75;5027979;28;20091;-68
2023/08/08 01:31:54;;;;;;;8.88;3.42;;;;;;;13.24;97.10;101365.38;5029031;28;20121;-68
2023/08/08 01:34:20;;;;;;;8.90;3.28;;;;;;;13.24;96.94;101362.63;5016258;28;20515;-69
2023/08/08 01:36:55;;;;;;;6.03;3.20;;;;;;;13.23;97.37;101350.84;5010192;28;20054;-68
2023/08/08 01:39:26;;;;;;;9.77;3.60;;;;;;;13.23;97.89;101356.28;5009883;28;20049;-68
2023/08/08 01:41:53;;;;;;;11.82;4.07;;;;;;;13.23;97.67;101350.84;5010683;28;20171;-68
2023/08/08 01:44:20;;;;;;;6.38;3.15;;;;;;;13.25;98.02;101345.28;5018171;28;20039;-69
2023/08/08 01:46:46;;;;;;;8.70;3.80;;;;;;;13.25;98.15;101346.16;5009993;28;20045;-68
2023/08/08 01:49:13;;;;;;;6.47;3.78;;;;;;;13.25;99.55;101348.00;5008914;28;20037;-69
2023/08/08 01:51:38;;;;;;;7.65;4.05;;;;;;;13.24;98.45;101349.88;5009815;28;20079;-68
2023/08/08 01:54:04;;;;;;;5.97;3.47;;;;;;;13.22;99.21;101338.16;5009246;28;20042;-69
2023/08/08 01:56:29;;;;;;;8.15;3.72;;;;;;;13.23;99.49;101336.31;5044036;28;20029;-68
2023/08/08 01:58:55;;;;;;;9.35;3.70;;;;;;;13.21;98.75;101336.41;5025684;28;20045;-68
2023/08/08 02:01:20;;;;;;;6.22;3.45;;;;;;;13.21;99.00;101336.41;5028021;28;20099;-68
2023/08/08 02:03:46;;;;;;;10.38;3.70;;;;;;;13.20;99.68;101331.94;5021850;28;20057;-69
2023/08/08 02:06:11;;;;;;;10.55;4.22;;;;;;;13.16;99.20;101335.00;5008172;28;20042;-69
2023/08/08 02:08:37;;;;;;;10.55;4.13;;;;;;;13.12;98.63;101325.28;5007705;28;20092;-69
2023/08/08 02:11:02;;;;;;;6.85;4.70;;;;;;;13.08;99.56;101332.84;5008941;28;20433;-69
2023/08/08 02:13:27;;;;;;;6.95;4.10;;;;;;;12.99;99.39;101331.66;5012809;28;20041;-69
2023/08/08 02:15:53;;;;;;;10.98;3.60;;;;;;;12.96;99.42;101331.00;5029109;28;20033;-68
2023/08/08 02:18:18;;;;;;;11.35;4.13;;;;;;;12.94;100.00;101330.28;5028702;28;20155;-69
2023/08/08 02:20:44;;;;;;;10.77;4.78;;;;;;;12.94;100.00;101328.41;5027845;28;20049;-69
2023/08/08 02:23:10;;;;;;;12.20;4.45;;;;;;;12.96;100.00;101325.56;5025674;28;20042;-68
2023/08/08 02:25:35;;;;;;;8.18;3.85;;;;;;;12.97;100.00;101317.25;5008091;28;20041;-69
2023/08/08 02:28:00;;;;;;;12.07;4.50;;;;;;;12.99;100.00;101322.59;5017101;28;20056;-68
2023/08/08 02:30:26;;;;;;;12.63;4.18;;;;;;;12.99;100.00;101320.75;5010325;28;20038;-68
2023/08/08 02:32:51;;;;;;;12.88;5.35;;;;;;;12.98;100.00;101313.53;5010255;28;20501;-68
2023/08/08 02:35:17;;;;;;;7.10;3.42;;;;;;;12.98;100.00;101307.22;5009215;28;20048;-69
2023/08/08 02:37:42;;;;;;;11.07;4.78;;;;;;;12.99;100.00;101307.09;5005356;28;20484;-68
2023/08/08 02:40:09;;;;;;;13.57;4.45;;;;;;;13.00;100.00;101310.69;5008829;28;20505;-69
2023/08/08 02:42:35;;;;;;;9.45;3.80;;;;;;;12.99;100.00;101307.09;5007618;28;20505;-69
2023/08/08 02:45:00;;;;;;;12.73;4.95;;;;;;;12.99;100.00;101303.50;5022843;28;20040;-69
2023/08/08 02:47:26;;;;;;;10.15;5.05;;;;;;;12.99;100.00;101295.28;5025607;28;20022;-68
2023/08/08 02:49:51;;;;;;;10.73;4.03;;;;;;;12.99;100.00;101293.44;5007369;28;20124;-68
2023/08/08 02:52:17;;;;;;;12.40;4.32;;;;;;;12.99;100.00;101287.97;5007316;28;20033;-69
2023/08/08 02:54:42;;;;;;;13.18;4.35;;;;;;;12.99;100.00;101284.38;4990888;28;20045;-69
2023/08/08 02:57:10;;;;;;;8.93;4.43;;;;;;;12.99;100.00;101284.38;5008299;28;20053;-69
2023/08/08 02:59:36;;;;;;;13.60;5.35;;;;;;;13.01;100.00;101296.06;5019150;28;20041;-69
2023/08/08 03:02:04;;;;;;;11.00;4.90;;;;;;;12.99;100.00;101287.09;5026757;28;20029;-69
2023/08/08 03:04:32;;;;;;;8.30;4.28;;;;;;;12.99;100.00;101292.56;5026681;28;20139;-69
2023/08/08 03:06:57;;;;;;;15.52;4.72;;;;;;;12.99;100.00;101293.44;5026354;28;20533;-68
2023/08/08 03:09:23;;;;;;;16.95;5.18;;;;;;;12.97;100.00;101291.81;5036644;28;20040;-69
2023/08/08 03:11:48;;;;;;;12.65;6.03;;;;;;;12.92;100.00;101303.09;5027307;28;20512;-69
2023/08/08 03:14:14;;;;;;;14.73;5.28;;;;;;;12.90;100.00;101302.31;5036520;28;20033;-69
2023/08/08 03:16:40;;;;;;;12.40;4.82;;;;;;;12.88;100.00;101297.97;5026195;28;20029;-68
2023/08/08 03:19:07;;;;;;;12.75;5.43;;;;;;;12.91;100.00;101301.31;5026442;28;20528;-69
2023/08/08 03:21:33;;;;;;;16.80;5.15;;;;;;;12.90;100.00;101288.66;5023647;28;20080;-68
2023/08/08 03:23:58;;;;;;;12.55;5.00;;;;;;;12.93;100.00;101287.56;5007126;28;20042;-69
2023/08/08 03:26:24;;;;;;;12.13;5.47;;;;;;;12.93;100.00;101282.97;5005995;28;20033;-69
2023/08/08 03:28:53;;;;;;;14.18;5.30;;;;;;;12.95;100.00;101285.59;5007679;28;20099;-69
2023/08/08 03:31:21;;;;;;;16.77;6.43;;;;;;;12.95;100.00;101278.25;5006123;28;20034;-69
2023/08/08 03:33:47;;;;;;;19.80;5.40;;;;;;;12.95;100.00;101288.31;5026112;28;20033;-69
2023/08/08 03:36:13;;;;;;;12.65;5.68;;;;;;;12.92;100.00;101281.25;5025520;28;20485;-69
2023/08/08 03:38:38;;;;;;;15.88;5.40;;;;;;;12.94;100.00;101289.31;5026113;28;20032;-68
2023/08/08 03:41:05;;;;;;;11.85;5.47;;;;;;;12.92;100.00;101285.84;5025342;28;20116;-68
2023/08/08 03:43:31;;;;;;;13.98;5.68;;;;;;;12.91;100.00;101284.94;5014805;28;20041;-69
2023/08/08 03:45:56;;;;;;;17.40;5.63;;;;;;;12.92;100.00;101285.84;5025695;28;20033;-69
2023/08/08 03:48:22;;;;;;;14.65;5.30;;;;;;;12.90;100.00;101288.66;5025258;28;20461;-68
2023/08/08 03:50:48;;;;;;;12.85;5.15;;;;;;;12.90;100.00;101279.59;5025811;28;20045;-69
2023/08/08 03:53:14;;;;;;;17.20;5.68;;;;;;;12.86;100.00;101281.69;5026136;28;20128;-68
2023/08/08 03:55:39;;;;;;;10.30;5.53;;;;;;;12.82;100.00;101288.34;5026799;28;20171;-68
2023/08/08 03:58:05;;;;;;;14.40;6.57;;;;;;;12.77;100.00;101291.44;5023841;28;20046;-69
2023/08/08 04:00:31;;;;;;;16.27;6.43;;;;;;;12.72;100.00;101288.16;5007597;28;20107;-68
2023/08/08 04:02:56;;;;;;;21.67;5.00;;;;;;;12.67;100.00;101287.66;5007443;28;20057;-69
2023/08/08 04:05:22;;;;;;;12.43;5.65;;;;;;;12.63;100.00;101277.06;5007607;28;20570;-68
2023/08/08 04:07:47;;;;;;;16.42;6.50;;;;;;;12.61;100.00;101281.78;5006387;28;20040;-69
2023/08/08 04:10:13;;;;;;;8.68;5.13;;;;;;;12.58;100.00;101284.72;5026595;28;20033;-69
2023/08/08 04:12:38;;;;;;;13.15;5.88;;;;;;;12.54;100.00;101272.28;5024995;28;20040;-69
2023/08/08 04:15:04;;;;;;;19.80;6.38;;;;;;;12.52;100.00;101276.00;5009987;28;20033;-69
2023/08/08 04:17:30;;;;;;;16.38;5.82;;;;;;;12.51;100.00;101268.81;4990451;28;20030;-69
2023/08/08 04:19:55;;;;;;;18.88;6.88;;;;;;;12.48;100.00;101274.47;5007279;28;20483;-68
2023/08/08 04:22:21;;;;;;;12.43;6.15;;;;;;;12.48;100.00;101270.88;5007195;28;20450;-68
2023/08/08 04:24:46;;;;;;;11.30;5.50;;;;;;;12.45;100.00;101277.47;5007298;28;20413;-68
2023/08/08 04:27:11;;;;;;;14.32;5.75;;;;;;;12.43;100.00;101279.41;5024463;28;20448;-68
2023/08/08 04:29:37;;;;;;;11.85;5.10;;;;;;;12.45;100.00;101274.72;5013129;28;20042;-69
2023/08/08 04:32:02;;;;;;;13.75;6.38;;;;;;;12.46;100.00;101279.19;5012363;28;20040;-68
2023/08/08 04:34:27;;;;;;;18.30;6.50;;;;;;;12.46;100.00;101273.75;5026724;28;20040;-68
2023/08/08 04:36:53;;;;;;;17.55;6.72;;;;;;;12.47;100.00;101271.88;5013001;28;20881;-69
2023/08/08 04:39:18;;;;;;;14.38;5.95;;;;;;;12.51;100.00;101276.13;5006361;28;20112;-68
2023/08/08 04:41:44;;;;;;;13.25;6.53;;;;;;;12.54;100.00;101280.47;5006095;28;20458;-69
2023/08/08 04:44:09;;;;;;;18.13;6.72;;;;;;;12.57;100.00;101283.00;5006593;28;20095;-69
2023/08/08 04:46:34;;;;;;;17.55;6.05;;;;;;;12.59;100.00;101287.38;5007844;28;20058;-69
2023/08/08 04:49:00;;;;;;;22.42;6.47;;;;;;;12.58;100.00;101280.13;5005856;28;20373;-69
2023/08/08 04:51:25;;;;;;;15.23;6.60;;;;;;;12.57;100.00;101278.41;5007403;28;20440;-69
2023/08/08 04:53:50;;;;;;;12.57;5.47;;;;;;;12.57;100.00;101278.41;5014493;28;20454;-69
2023/08/08 04:56:16;;;;;;;16.52;6.15;;;;;;;12.56;100.00;101276.66;5008808;28;20412;-69
2023/08/08 04:58:41;;;;;;;15.88;5.72;;;;;;;12.55;100.00;101283.13;5013716;28;20075;-69
2023/08/08 05:01:08;;;;;;;11.02;6.18;;;;;;;12.55;100.00;101269.47;5014383;28;20108;-69
2023/08/08 05:03:34;;;;;;;24.90;6.18;;;;;;;12.54;100.00;101280.47;5007724;28;20036;-68
2023/08/08 05:06:00;;;;;;;14.90;6.28;;;;;;;12.53;100.00;101274.16;5006760;28;20121;-69
2023/08/08 05:08:25;;;;;;;18.80;7.43;;;;;;;12.55;100.00;101276.78;5006200;28;20045;-68
2023/08/08 05:10:51;;;;;;;13.85;5.90;;;;;;;12.55;100.00;101268.59;5017532;28;20056;-69
2023/08/08 05:13:16;;;;;;;15.57;5.85;;;;;;;12.56;100.00;101276.66;5013077;28;20052;-68
2023/08/08 05:15:41;;;;;;;18.17;5.75;;;;;;;12.58;100.00;101280.13;5016649;28;20404;-68
2023/08/08 05:18:07;;;;;;;17.25;6.32;;;;;;;12.64;100.00;101278.84;5006663;28;20459;-69
2023/08/08 05:20:32;;;;;;;17.65;6.20;;;;;;;12.63;100.00;101277.94;5005887;28;20034;-69
2023/08/08 05:22:58;;;;;;;13.45;6.75;;;;;;;12.65;100.00;101266.91;5005343;28;20048;-69
2023/08/08 05:25:23;;;;;;;15.77;6.28;;;;;;;12.65;100.00;101275.97;5006502;28;20374;-68
2023/08/08 05:27:49;;;;;;;17.77;6.15;;;;;;;12.65;100.00;101275.97;5005696;28;20022;-69
2023/08/08 05:30:15;;;;;;;17.45;5.88;;;;;;;12.67;100.00;101276.72;5022623;28;20041;-69
2023/08/08 05:32:40;;;;;;;15.77;6.15;;;;;;;12.68;100.00;101277.59;5024991;28;20408;-69
2023/08/08 05:35:06;;;;;;;14.80;6.90;;;;;;;12.75;100.00;101289.81;5026201;28;20081;-69
2023/08/08 05:37:32;;;;;;;15.70;6.45;;;;;;;12.83;100.00;101289.25;5024800;28;20042;-69
2023/08/08 05:39:57;;;;;;;15.93;6.53;;;;;;;12.89;100.00;101288.78;5025984;28;20037;-69
2023/08/08 05:42:22;;;;;;;14.40;7.00;;;;;;;13.00;100.00;101284.25;5024987;28;20041;-69
2023/08/08 05:44:48;;;;;;;18.42;6.20;;;;;;;13.12;100.00;101287.03;5032760;28;20041;-69
2023/08/08 05:47:13;;;;;;;16.17;6.03;;;;;;;13.20;100.00;101281.88;5029635;28;20057;-68
2023/08/08 05:49:41;;;;;;;19.77;6.35;;;;;;;13.26;100.00;101278.69;5029778;28;20042;-69
2023/08/08 05:52:06;;;;;;;19.25;6.40;;;;;;;13.33;100.00;101285.41;5015745;28;20052;-69
2023/08/08 05:54:32;;;;;;;16.85;6.13;;;;;;;13.43;100.00;101282.84;5010283;28;20148;-69
2023/08/08 05:56:57;;;;;;;16.55;6.00;;;;;;;13.55;100.00;101278.31;5009405;28;20500;-68
2023/08/08 05:59:22;;;;;;;16.27;6.30;;;;;;;13.59;100.00;101283.41;5016190;28;20049;-69
2023/08/08 06:01:48;;;;;;;16.38;6.68;;;;;;;13.63;100.00;101286.78;5010211;28;20103;-69
2023/08/08 06:04:13;;;;;;;12.10;5.63;;;;;;;13.65;100.00;101285.66;5009678;28;20095;-68
2023/08/08 06:06:39;;;;;;;14.63;6.53;;;;;;;13.73;100.00;101285.06;5009515;28;20022;-69
2023/08/08 06:09:05;;;;;;;15.50;6.28;;;;;;;13.89;100.00;101281.97;5016535;28;20485;-69
2023/08/08 06:11:30;;;;;;;17.08;6.78;;;;;;;13.94;100.00;101287.94;5011780;28;20099;-69
2023/08/08 06:13:55;;;;;;;13.60;6.43;;;;;;;13.92;100.00;101282.59;5022510;28;20080;-69
2023/08/08 06:16:21;;;;;;;15.52;6.35;;;;;;;13.95;100.00;101298.78;5012208;28;20393;-69
2023/08/08 06:18:47;;;;;;;13.27;5.75;;;;;;;14.04;100.00;101298.06;5009367;28;20050;-69
2023/08/08 06:21:12;;;;;;;16.35;6.07;;;;;;;14.04;100.00;101299.94;5009098;28;20054;-69
2023/08/08 06:23:37;;;;;;;18.23;6.30;;;;;;;14.01;100.00;101301.03;5009179;28;20042;-69
2023/08/08 06:26:03;;;;;;;16.38;6.75;;;;;;;14.02;100.00;101310.97;5009149;28;20025;-69
2023/08/08 06:28:30;;;;;;;14.75;5.53;;;;;;;14.06;100.00;101303.41;5018772;28;20073;-69
2023/08/08 06:30:55;;;;;;;19.73;6.28;;;;;;;14.11;100.00;101312.09;5008817;28;20029;-69
2023/08/08 06:33:21;;;;;;;16.65;6.15;;;;;;;14.17;100.00;101299.78;5025126;28;20087;-69
2023/08/08 06:35:46;;;;;;;27.98;6.93;;;;;;;14.23;100.00;101297.44;5028931;28;20025;-69
2023/08/08 06:38:11;;;;;;;15.88;6.38;;;;;;;14.28;100.00;101302.56;5014007;28;20029;-69
2023/08/08 06:40:37;;;;;;;15.85;5.57;;;;;;;14.33;100.00;101300.31;5009326;28;20032;-69
2023/08/08 06:43:03;;;;;;;14.95;6.65;;;;;;;14.37;100.00;101295.47;5009124;28;20033;-69
2023/08/08 06:45:28;;;;;;;16.40;5.18;;;;;;;14.47;100.00;101296.44;5008683;28;20091;-69
2023/08/08 06:47:53;;;;;;;15.60;5.70;;;;;;;14.48;100.00;101303.69;5009201;28;20154;-69
2023/08/08 06:50:20;;;;;;;13.20;6.07;;;;;;;14.45;100.00;101292.94;5008739;28;20049;-69
2023/08/08 06:52:45;;;;;;;13.05;4.63;;;;;;;14.46;100.00;101301.06;5007397;28;20116;-69
2023/08/08 06:55:11;;;;;;;15.45;6.10;;;;;;;14.49;100.00;101303.56;5007929;28;20109;-69
2023/08/08 06:57:37;;;;;;;13.07;5.88;;;;;;;14.51;100.00;101301.59;5012370;28;20510;-69
2023/08/08 07:00:05;;;;;;;14.48;5.63;;;;;;;14.54;100.00;101304.06;5027354;28;20060;-69
2023/08/08 07:02:30;;;;;;;12.57;5.60;;;;;;;14.63;100.00;101301.56;5028328;28;20044;-69
2023/08/08 07:04:56;;;;;;;14.50;4.85;;;;;;;14.68;100.00;101304.78;5024863;28;20022;-69
2023/08/08 07:07:21;;;;;;;17.80;5.60;;;;;;;14.75;99.71;101308.78;5006901;28;20104;-69
2023/08/08 07:09:48;;;;;;;17.85;5.13;;;;;;;14.80;100.00;101309.28;5020229;28;20029;-69
2023/08/08 07:12:13;;;;;;;11.10;5.43;;;;;;;14.86;99.55;101307.88;5024475;28;20034;-69
2023/08/08 07:14:39;;;;;;;11.65;4.93;;;;;;;14.90;99.46;101310.25;5019509;28;20057;-70
2023/08/08 07:17:05;;;;;;;12.55;5.38;;;;;;;14.98;99.45;101307.75;5009865;28;20108;-69
2023/08/08 07:19:30;;;;;;;10.68;4.68;;;;;;;15.04;98.39;101309.09;5008070;28;20046;-69
2023/08/08 07:21:56;;;;;;;14.15;5.13;;;;;;;15.17;98.09;101303.44;5008769;28;20053;-69
2023/08/08 07:24:21;;;;;;;12.35;4.70;;;;;;;15.39;98.58;101305.22;5007710;28;20117;-69
2023/08/08 07:26:47;;;;;;;12.35;4.72;;;;;;;15.59;97.16;101311.75;5007949;28;20120;-69
2023/08/08 07:29:12;;;;;;;13.90;4.78;;;;;;;15.71;96.84;101306.09;5024063;28;20037;-69
2023/08/08 07:31:37;;;;;;;15.45;4.93;;;;;;;15.78;94.55;101306.44;5026032;28;20053;-69
2023/08/08 07:34:03;;;;;;;14.43;5.15;;;;;;;15.81;93.63;101308.94;5011054;28;20038;-70
2023/08/08 07:36:28;;;;;;;10.45;4.65;;;;;;;15.79;93.26;101298.06;5013500;28;20021;-69
2023/08/08 07:38:59;;;;;;;15.52;4.95;;;;;;;15.88;92.76;101307.38;5027491;28;20520;-69
2023/08/08 07:41:26;;;;;;;14.60;5.18;;;;;;;15.99;92.04;101304.56;5024966;28;20141;-69
2023/08/08 07:43:51;;;;;;;9.18;4.80;;;;;;;16.11;92.71;101308.09;5009609;28;20026;-69
2023/08/08 07:46:17;;;;;;;8.70;4.07;;;;;;;16.24;93.52;101288.66;5007354;28;20049;-69
2023/08/08 07:48:42;;;;;;;9.73;3.75;;;;;;;16.27;91.28;101291.13;5010740;28;20100;-69
2023/08/08 07:51:07;;;;;;;9.20;3.85;;;;;;;16.31;90.36;101307.19;5010555;28;20113;-69
2023/08/08 07:53:32;;;;;;;9.13;3.50;;;;;;;16.37;89.09;101303.03;5007751;28;20068;-69
2023/08/08 07:55:58;;;;;;;11.23;3.58;;;;;;;16.42;89.33;101298.00;5011753;28;20071;-69
2023/08/08 07:58:25;;;;;;;11.60;3.85;;;;;;;16.56;89.47;101300.38;5012159;28;20077;-69
2023/08/08 08:00:53;;;;;;;10.23;3.05;;;;;;;16.71;90.88;101292.63;5011963;28;20125;-69
2023/08/08 08:03:18;;;;;;;9.50;3.10;;;;;;;16.77;87.51;101308.56;5007803;28;20100;-69
2023/08/08 08:05:44;;;;;;;8.75;2.95;;;;;;;16.82;83.92;101299.91;5017469;28;20473;-69
2023/08/08 08:08:09;;;;;;;5.60;2.60;;;;;;;16.91;85.01;101296.31;5025530;28;20079;-69
2023/08/08 08:10:35;;;;;;;7.18;2.47;;;;;;;17.04;86.15;101296.91;5008382;28;20084;-69
2023/08/08 08:13:00;;;;;;;7.50;2.22;;;;;;;17.16;85.58;101289.44;5008011;28;20034;-69
2023/08/08 08:15:26;;;;;;;4.93;2.90;;;;;;;17.35;84.60;101299.56;5006849;28;20389;-69
2023/08/08 08:17:51;;;;;;;7.45;3.35;;;;;;;17.52;85.48;101307.06;5007505;28;20038;-69
2023/08/08 08:20:16;;;;;;;8.93;3.78;;;;;;;17.63;82.83;101307.97;5021655;28;20029;-69
2023/08/08 08:22:42;;;;;;;10.10;2.85;;;;;;;17.75;80.27;101298.56;5012006;28;20033;-69
2023/08/08 08:25:09;;;;;;;5.40;3.00;;;;;;;18.04;80.84;101310.38;5026602;28;20030;-69
2023/08/08 08:27:37;;;;;;;5.57;2.67;;;;;;;18.17;78.51;101303.69;5021274;28;20083;-70
2023/08/08 08:30:05;;;;;;;12.32;2.70;;;;;;;18.30;79.86;101316.13;5021838;28;20037;-69
2023/08/08 08:32:34;;;;;;;10.07;2.70;;;;;;;18.29;77.31;101306.13;5025842;28;20087;-69
2023/08/08 08:35:06;;;;;;;9.48;3.00;;;;;;;18.33;77.04;101301.19;5027003;28;20036;-69
2023/08/08 08:37:32;;;;;;;7.15;2.75;;;;;;;18.40;77.61;101304.19;5027440;28;20096;-70
2023/08/08 08:39:57;;;;;;;10.70;3.35;;;;;;;18.30;77.93;101305.09;5026683;28;20591;-70
2023/08/08 08:42:24;;;;;;;7.28;2.72;;;;;;;18.18;75.57;101295.28;5022372;28;20508;-69
2023/08/08 08:44:51;;;;;;;6.28;2.60;;;;;;;18.22;76.81;101301.34;5018246;28;20040;-69
2023/08/08 08:47:19;;;;;;;8.68;2.90;;;;;;;18.50;78.83;101305.03;5026742;28;20136;-69
2023/08/08 08:49:45;;;;;;;6.25;2.35;;;;;;;18.69;76.98;101304.97;5024381;28;20038;-69
2023/08/08 08:52:11;;;;;;;5.90;2.65;;;;;;;18.66;74.60;101313.53;5026707;28;20046;-69
2023/08/08 08:54:36;;;;;;;6.07;2.80;;;;;;;18.72;73.16;101304.66;5041806;28;20071;-69
2023/08/08 08:57:02;;;;;;;5.80;2.17;;;;;;;18.83;75.37;101303.59;5011990;28;20454;-69
2023/08/08 08:59:27;;;;;;;5.95;2.42;;;;;;;18.84;74.04;101311.72;5014899;28;20587;-69
2023/08/08 09:01:53;;;;;;;7.53;2.33;;;;;;;18.71;74.99;101311.22;5007115;28;20051;-69
2023/08/08 09:04:20;;;;;;;6.75;2.50;;;;;;;18.49;74.02;101304.16;5007003;28;20029;-69
2023/08/08 09:06:47;;;;;;;11.77;3.30;;;;;;;18.30;75.78;101316.13;5017630;28;20045;-69
2023/08/08 09:09:13;;;;;;;4.80;2.42;;;;;;;18.16;75.31;101312.97;5025992;28;20382;-69
2023/08/08 09:11:40;;;;;;;6.90;2.70;;;;;;;18.01;75.04;101307.06;5026459;28;20041;-69
2023/08/08 09:14:17;;;;;;;5.93;2.22;;;;;;;17.95;76.08;101311.31;5015748;28;20079;-69
2023/08/08 09:16:43;;;;;;;7.38;2.95;;;;;;;17.90;75.25;101309.97;5012161;28;20466;-69
2023/08/08 09:19:09;;;;;;;5.45;2.53;;;;;;;17.89;77.37;101308.25;5012971;28;20478;-69
2023/08/08 09:21:34;;;;;;;9.35;2.42;;;;;;;17.94;76.43;101312.28;5030789;28;20022;-69
2023/08/08 09:23:59;;;;;;;6.50;2.67;;;;;;;17.95;74.80;101310.41;5030113;28;20031;-69
2023/08/08 09:26:25;;;;;;;7.38;2.60;;;;;;;18.02;77.35;101314.31;5029724;28;20560;-69
2023/08/08 09:28:50;;;;;;;6.30;2.28;;;;;;;18.16;76.30;101326.75;5014655;28;20061;-69
2023/08/08 09:31:16;;;;;;;6.07;2.40;;;;;;;18.29;75.66;101327.31;5010244;28;20195;-69
2023/08/08 09:33:43;;;;;;;4.80;2.40;;;;;;;18.33;74.90;101315.84;5029396;28;20570;-69
2023/08/08 09:36:16;;;;;;;6.07;2.13;;;;;;;18.41;76.38;101319.72;5029984;28;20145;-69
2023/08/08 09:38:41;;;;;;;7.95;2.40;;;;;;;18.44;74.46;101325.78;5011306;28;20042;-69
2023/08/08 09:41:07;;;;;;;8.95;2.65;;;;;;;18.63;75.12;101327.59;5009698;28;20481;-69
2023/08/08 09:43:32;;;;;;;5.25;2.20;;;;;;;18.81;73.47;101325.81;5010874;28;20134;-69
2023/08/08 09:45:58;;;;;;;8.27;2.17;;;;;;;18.95;72.33;101318.06;5009769;28;20034;-69
2023/08/08 09:48:30;;;;;;;7.28;2.53;;;;;;;19.10;74.07;101317.34;5010524;28;20168;-70
2023/08/08 09:50:59;;;;;;;6.70;2.60;;;;;;;19.20;71.29;101322.81;5010124;28;20040;-69
2023/08/08 09:53:26;;;;;;;4.60;2.20;;;;;;;19.44;73.59;101321.31;5010021;28;20109;-69
2023/08/08 09:55:54;;;;;;;5.07;2.22;;;;;;;19.73;69.61;101313.72;5009669;28;20056;-70
2023/08/08 09:58:20;;;;;;;7.28;2.38;;;;;;;20.01;67.66;101317.22;5018352;28;20045;-70
2023/08/08 10:00:45;;;;;;;6.97;2.10;;;;;;;20.26;69.55;101315.50;5009434;28;20069;-70
2023/08/08 10:03:11;;;;;;;4.18;2.10;;;;;;;20.32;68.51;101308.44;5009811;28;20096;-69
2023/08/08 10:05:38;;;;;;;7.70;2.10;;;;;;;20.33;67.75;101313.81;5009795;28;20029;-70
2023/08/08 10:08:04;;;;;;;6.78;2.10;;;;;;;20.46;64.22;101296.78;5010214;28;20084;-69
2023/08/08 10:10:30;;;;;;;3.55;2.10;;;;;;;20.69;63.99;101301.75;5009324;28;20038;-69
2023/08/08 10:12:55;;;;;;;6.05;1.60;;;;;;;20.93;68.05;101309.28;5008949;28;20038;-70
2023/08/08 10:15:26;;;;;;;3.65;1.70;;;;;;;20.63;63.18;101304.16;5024872;28;20119;-69
2023/08/08 10:17:55;;;;;;;2.85;1.50;;;;;;;20.51;64.61;101305.47;5029672;28;20041;-70
2023/08/08 10:20:21;;;;;;;4.03;1.45;;;;;;;20.52;64.73;101307.22;5029096;28;20022;-70
2023/08/08 10:22:47;;;;;;;6.13;1.98;;;;;;;20.38;65.82;101316.09;5028184;28;20033;-69
2023/08/08 10:25:27;;;;;;;5.93;1.67;;;;;;;20.26;65.13;101320.16;5029322;28;20041;-70
2023/08/08 10:28:08;;;;;;;6.53;1.40;;;;;;;19.84;61.20;101326.41;5027095;28;20040;-70
2023/08/08 10:30:44;;;;;;;5.20;1.25;;;;;;;19.42;64.88;101313.22;5009071;28;20497;-70
2023/08/08 10:33:26;;;;;;;4.22;1.45;;;;;;;19.19;65.40;101322.97;5023966;28;20538;-69
2023/08/08 10:36:01;;;;;;;3.60;1.40;;;;;;;19.04;65.06;101328.16;5029103;28;20053;-69
2023/08/08 10:38:40;;;;;;;5.80;1.60;;;;;;;18.92;66.34;101321.09;5022601;28;20186;-70
2023/08/08 10:41:09;;;;;;;4.70;1.60;;;;;;;19.14;69.03;101317.91;5009174;28;20049;-70
2023/08/08 10:43:35;;;;;;;3.95;1.80;;;;;;;19.45;69.21;101312.06;5016499;28;20461;-69
2023/08/08 10:46:01;;;;;;;5.32;1.98;;;;;;;19.41;65.67;101316.16;5008823;28;20037;-70
2023/08/08 10:48:27;;;;;;;8.13;1.98;;;;;;;19.56;68.06;101312.66;5009561;28;20042;-70
2023/08/08 10:51:00;;;;;;;4.65;2.25;;;;;;;19.59;65.87;101319.78;5009026;28;20025;-70
2023/08/08 10:53:26;;;;;;;4.22;2.05;;;;;;;19.62;66.08;101313.94;5008971;28;20193;-69
2023/08/08 10:56:03;;;;;;;4.43;2.08;;;;;;;19.64;66.04;101311.91;5008644;28;20112;-70
2023/08/08 10:58:39;;;;;;;4.70;2.38;;;;;;;19.85;65.56;101295.00;5008575;28;20045;-69
2023/08/08 11:01:07;;;;;;;10.40;2.38;;;;;;;20.15;66.66;101304.72;5009092;28;20429;-69
2023/08/08 11:03:43;;;;;;;4.53;1.90;;;;;;;20.51;67.87;101296.31;5009741;28;20041;-70
2023/08/08 11:06:10;;;;;;;7.47;2.83;;;;;;;20.81;66.06;101305.97;5009051;28;20516;-70
2023/08/08 11:08:38;;;;;;;5.68;2.38;;;;;;;21.07;63.09;101308.66;5009186;28;20049;-70
2023/08/08 11:11:05;;;;;;;7.30;2.40;;;;;;;21.37;67.21;101296.13;5009250;28;20050;-70
2023/08/08 11:13:30;;;;;;;3.63;2.33;;;;;;;21.60;61.45;101293.56;5019560;28;20037;-70